Time;durP1;ratioP1;P1;durP2;ratioP2;P2;SDS_P1;SDS_P2;PMS_P1;PMS_P2;Temp;Humidity;BMP_temperature;BMP_pressure;BME280_temperature;BME280_humidity;BME280_pressure;Samples;Min_cycle;Max_cycle;Signal;HPM_P1;HPM_P2
2021/12/22 00:01:56;;;;;;;71.68;31.80;;;;;;;-4.06;98.68;98375.63;4889791;29;20047;-79
2021/12/22 00:04:24;;;;;;;65.82;30.45;;;;;;;-4.13;99.90;98368.63;4895744;29;20044;-79
2021/12/22 00:06:50;;;;;;;66.93;27.90;;;;;;;-4.17;100.00;98364.22;4889070;29;20047;-80
2021/12/22 00:09:15;;;;;;;81.72;32.97;;;;;;;-4.19;100.00;98373.81;4919317;29;20031;-80
2021/12/22 00:11:42;;;;;;;63.85;27.65;;;;;;;-4.30;99.67;98375.41;4889121;29;20473;-78
2021/12/22 00:14:08;;;;;;;37.58;15.32;;;;;;;-4.22;98.42;98379.00;4889659;29;20493;-79
2021/12/22 00:16:33;;;;;;;27.95;13.25;;;;;;;-4.25;98.72;98378.09;4900683;29;20039;-79
2021/12/22 00:18:59;;;;;;;24.45;11.00;;;;;;;-4.32;99.30;98377.16;4896494;29;20043;-80
2021/12/22 00:21:24;;;;;;;25.23;11.98;;;;;;;-4.39;100.00;98380.56;4901684;29;20035;-80
2021/12/22 00:23:50;;;;;;;25.58;11.90;;;;;;;-4.42;100.00;98384.03;4892177;29;20036;-79
2021/12/22 00:26:16;;;;;;;23.70;11.30;;;;;;;-4.58;100.00;98369.06;4899717;29;20079;-79
2021/12/22 00:28:42;;;;;;;24.83;9.75;;;;;;;-4.52;100.00;98386.53;4916369;29;20397;-78
2021/12/22 00:31:12;;;;;;;21.80;10.02;;;;;;;-4.54;99.48;98388.22;4911997;29;20072;-79
2021/12/22 00:33:48;;;;;;;27.63;11.40;;;;;;;-4.44;100.00;98403.13;4918894;29;20046;-80
2021/12/22 00:36:23;;;;;;;18.15;8.60;;;;;;;-4.52;100.00;98408.25;4892790;29;20424;-81
2021/12/22 00:38:50;;;;;;;21.65;9.30;;;;;;;-4.49;99.86;98410.91;4893331;29;20040;-80
2021/12/22 00:41:16;;;;;;;16.25;8.35;;;;;;;-4.51;99.37;98409.16;4888987;29;20088;-79
2021/12/22 00:43:41;;;;;;;20.60;9.18;;;;;;;-4.59;99.82;98403.84;4891797;29;20126;-80
2021/12/22 00:46:07;;;;;;;20.55;9.23;;;;;;;-4.49;100.00;98410.91;4890586;29;20412;-81
2021/12/22 00:48:33;;;;;;;20.17;9.60;;;;;;;-4.61;100.00;98394.22;4893109;29;20083;-84
2021/12/22 00:50:59;;;;;;;18.85;9.18;;;;;;;-4.56;100.00;98414.34;4900329;29;20505;-84
2021/12/22 00:53:25;;;;;;;22.55;10.10;;;;;;;-4.59;100.00;98410.81;4902996;29;20036;-84
2021/12/22 00:55:53;;;;;;;24.33;11.52;;;;;;;-4.55;100.00;98409.97;4889644;29;20099;-85
2021/12/22 00:58:20;;;;;;;21.63;10.98;;;;;;;-4.63;100.00;98406.41;4899067;29;20099;-84
2021/12/22 01:00:47;;;;;;;24.75;11.57;;;;;;;-4.65;100.00;98402.91;4907164;29;20079;-79
2021/12/22 01:03:14;;;;;;;32.20;13.27;;;;;;;-4.59;100.00;98408.19;4894325;29;20135;-77
2021/12/22 01:05:40;;;;;;;32.75;14.10;;;;;;;-4.55;98.89;98409.97;4908979;29;20115;-80
2021/12/22 01:08:06;;;;;;;34.78;13.18;;;;;;;-4.63;98.83;98412.50;4889273;29;20067;-80
2021/12/22 01:10:32;;;;;;;31.75;14.73;;;;;;;-4.55;98.36;98409.97;4895439;29;20094;-81
2021/12/22 01:13:00;;;;;;;37.92;16.02;;;;;;;-4.54;97.89;98398.66;4896473;29;20055;-81
2021/12/22 01:15:28;;;;;;;43.40;18.45;;;;;;;-4.48;97.77;98404.84;4888498;29;20050;-80
2021/12/22 01:18:01;;;;;;;52.80;20.98;;;;;;;-4.50;96.97;98390.03;4888885;29;20043;-81
2021/12/22 01:20:32;;;;;;;54.22;19.30;;;;;;;-4.50;97.39;98397.84;4889805;29;20040;-81
2021/12/22 01:23:05;;;;;;;33.37;14.90;;;;;;;-4.52;98.01;98394.38;4889453;29;20411;-80
2021/12/22 01:25:37;;;;;;;31.20;13.57;;;;;;;-4.69;99.07;98380.25;4904279;29;20340;-79
2021/12/22 01:28:02;;;;;;;;;;;;;;;-4.64;99.81;98394.19;4885953;29;20519;-79
2021/12/22 01:30:31;;;;;;;22.60;11.63;;;;;;;-4.93;100.00;98363.47;4897077;29;19919;-79
2021/12/22 01:32:58;;;;;;;22.92;11.10;;;;;;;-4.72;100.00;98396.75;4893006;29;20070;-79
2021/12/22 01:35:27;;;;;;;30.00;13.60;;;;;;;-4.75;100.00;98386.28;4890722;29;20044;-80
2021/12/22 01:37:52;;;;;;;29.50;13.07;;;;;;;-4.74;100.00;98388.03;4893682;29;20099;-79
2021/12/22 01:40:19;;;;;;;27.80;11.88;;;;;;;-4.92;99.80;98373.03;4902595;29;20043;-79
2021/12/22 01:42:45;;;;;;;23.73;10.65;;;;;;;-4.83;99.72;98381.84;4888984;29;20496;-79
2021/12/22 01:50:37;;;;;;;24.85;11.48;;;;;;;-4.89;99.84;98376.53;4902969;29;20049;-83
2021/12/22 01:53:44;;;;;;;21.42;10.15;;;;;;;-5.00;98.51;98374.66;4895041;29;20055;-83
2021/12/22 01:56:25;;;;;;;20.77;9.95;;;;;;;-5.10;98.77;98371.91;4902187;29;20036;-81
2021/12/22 01:58:53;;;;;;;19.50;9.38;;;;;;;-5.05;100.00;98372.88;4899110;29;20040;-83
2021/12/22 02:01:21;;;;;;;18.48;10.02;;;;;;;-4.99;99.42;98360.78;4910379;29;20035;-84
2021/12/22 02:03:49;;;;;;;22.10;9.65;;;;;;;-4.93;99.24;98358.25;4902243;29;20035;-84
2021/12/22 02:06:15;;;;;;;24.65;11.20;;;;;;;-4.88;99.02;98362.63;4897676;29;20103;-84
2021/12/22 02:08:44;;;;;;;20.30;9.80;;;;;;;-5.04;99.63;98367.66;4892709;29;20039;-84
2021/12/22 02:11:11;;;;;;;21.42;9.82;;;;;;;-5.03;99.29;98364.22;4891160;29;20497;-85
2021/12/22 02:13:40;;;;;;;58.47;19.02;;;;;;;-5.02;97.42;98354.66;4887425;29;20043;-83
2021/12/22 02:16:14;;;;;;;67.35;30.40;;;;;;;-4.95;97.82;98365.16;4888758;29;20019;-85
2021/12/22 02:18:46;;;;;;;51.97;20.83;;;;;;;-4.99;97.36;98358.19;4893159;29;20043;-84
2021/12/22 02:21:12;;;;;;;45.72;19.55;;;;;;;-4.96;97.64;98360.81;4897954;29;20036;-83
2021/12/22 02:23:39;;;;;;;33.28;15.45;;;;;;;-5.09;96.79;98356.31;4895021;29;20484;-83
2021/12/22 02:26:13;;;;;;;37.72;17.10;;;;;;;-5.15;97.02;98358.84;4900975;29;20127;-84
2021/12/22 02:28:44;;;;;;;34.72;14.30;;;;;;;-5.24;98.41;98345.69;4904181;29;20040;-83
2021/12/22 02:31:14;;;;;;;31.63;12.90;;;;;;;-5.30;99.71;98347.34;4892005;29;20103;-83
2021/12/22 02:33:42;;;;;;;32.38;13.02;;;;;;;-5.23;98.61;98350.03;4889995;29;20039;-83
2021/12/22 02:36:22;;;;;;;35.05;14.18;;;;;;;-5.19;97.97;98345.72;4899156;29;20036;-83
2021/12/22 02:38:54;;;;;;;47.38;18.33;;;;;;;-5.19;97.50;98357.03;4899370;29;20393;-82
2021/12/22 02:41:26;;;;;;;42.05;17.55;;;;;;;-5.22;98.35;98361.34;4884761;29;20040;-83
2021/12/22 02:43:54;;;;;;;46.78;19.00;;;;;;;-5.25;99.06;98354.38;4886323;29;20051;-84
2021/12/22 02:46:26;;;;;;;45.03;19.38;;;;;;;-5.27;98.81;98355.19;4901315;29;20035;-84
2021/12/22 02:48:52;;;;;;;41.67;18.47;;;;;;;-5.30;98.74;98342.13;4903188;29;20701;-83
2021/12/22 02:51:19;;;;;;;39.53;16.30;;;;;;;-5.19;99.19;98354.44;4892250;29;20440;-83
2021/12/22 02:54:11;;;;;;;32.30;15.15;;;;;;;-5.17;98.81;98352.75;4898695;29;20488;-84
2021/12/22 02:57:17;;;;;;;37.58;16.45;;;;;;;-5.13;98.06;98351.91;4898112;29;20046;-83
2021/12/22 03:02:16;;;;;;;40.22;15.90;;;;;;;-5.33;99.87;98340.38;4912611;29;20549;-84
2021/12/22 03:04:49;;;;;;;25.42;12.88;;;;;;;-5.40;100.00;98350.69;4901551;29;20504;-84
2021/12/22 03:07:17;;;;;;;44.10;18.80;;;;;;;-5.48;100.00;98353.19;4900275;29;20176;-82
2021/12/22 03:09:43;;;;;;;54.05;21.50;;;;;;;-5.37;100.00;98345.50;4900614;29;20039;-83
2021/12/22 03:12:12;;;;;;;61.50;22.65;;;;;;;-5.28;100.00;98350.84;4916004;29;20138;-82
2021/12/22 03:14:38;;;;;;;53.67;21.13;;;;;;;-5.38;100.00;98355.03;4891638;29;20131;-82
2021/12/22 03:17:03;;;;;;;56.85;23.35;;;;;;;-5.55;100.00;98343.53;4886686;29;20064;-83
2021/12/22 03:19:31;;;;;;;42.28;20.20;;;;;;;-5.55;100.00;98348.75;4894392;29;20043;-83
2021/12/22 03:22:10;;;;;;;63.90;25.77;;;;;;;-5.57;100.00;98340.03;4905322;29;20088;-83
2021/12/22 03:24:37;;;;;;;61.72;26.13;;;;;;;-5.55;100.00;98346.13;4887619;29;20063;-84
2021/12/22 03:27:03;;;;;;;67.22;27.73;;;;;;;-5.65;100.00;98342.53;4900902;29;20063;-82
2021/12/22 03:29:32;;;;;;;70.05;29.55;;;;;;;-5.47;100.00;98361.03;4896791;29;20079;-83
2021/12/22 03:31:57;;;;;;;91.95;34.80;;;;;;;-5.55;100.00;98346.13;4893834;29;20032;-83
2021/12/22 03:34:23;;;;;;;77.70;29.00;;;;;;;-5.47;100.00;98350.59;4889777;29;20047;-83
2021/12/22 03:36:49;;;;;;;88.05;28.77;;;;;;;-5.50;100.00;98349.69;4905276;29;20055;-83
2021/12/22 03:39:16;;;;;;;69.18;25.85;;;;;;;-5.46;100.00;98351.47;4894174;29;20059;-82
2021/12/22 03:41:43;;;;;;;60.90;23.42;;;;;;;-5.43;100.00;98353.25;4901703;29;20545;-84
2021/12/22 03:44:09;;;;;;;84.05;27.48;;;;;;;-5.53;100.00;98354.84;4901926;29;20148;-84
2021/12/22 03:46:36;;;;;;;56.47;26.40;;;;;;;-5.82;100.00;98325.81;4897532;29;20062;-83
2021/12/22 03:49:07;;;;;;;55.65;24.25;;;;;;;-5.62;100.00;98360.81;4896827;29;20493;-84
2021/12/22 03:51:34;;;;;;;61.03;23.92;;;;;;;-5.62;100.00;98354.72;4908033;29;20037;-84
2021/12/22 03:54:00;;;;;;;58.58;23.05;;;;;;;-5.57;100.00;98363.50;4893355;29;20050;-84
2021/12/22 03:56:25;;;;;;;66.05;27.48;;;;;;;-5.65;100.00;98359.88;4892348;29;20172;-84
2021/12/22 03:58:51;;;;;;;81.32;30.02;;;;;;;-5.60;100.00;98368.66;4904705;29;20495;-83
2021/12/22 04:01:19;;;;;;;57.45;22.95;;;;;;;-5.61;100.00;98372.09;4891703;29;20047;-84
2021/12/22 04:03:48;;;;;;;61.28;24.20;;;;;;;-5.70;100.00;98361.56;4898874;29;20099;-82
2021/12/22 04:06:14;;;;;;;74.85;28.23;;;;;;;-5.59;100.00;98380.81;4885760;29;20048;-83
2021/12/22 04:08:40;;;;;;;96.97;31.58;;;;;;;-5.65;100.00;98365.09;4900973;29;20039;-83
2021/12/22 04:11:05;;;;;;;78.47;28.00;;;;;;;-5.60;100.00;98368.66;4890946;29;20032;-82
2021/12/22 04:13:31;;;;;;;49.10;21.38;;;;;;;-5.56;100.00;98378.25;4905757;29;20044;-82
2021/12/22 04:15:56;;;;;;;39.38;17.80;;;;;;;-5.63;100.00;98379.03;4895017;29;20495;-84
2021/12/22 04:18:22;;;;;;;41.30;18.45;;;;;;;-5.68;100.00;98372.88;4887561;29;20425;-84
2021/12/22 04:20:48;;;;;;;36.05;16.35;;;;;;;-5.67;100.00;98374.63;4892074;29;20551;-85
2021/12/22 04:23:14;;;;;;;36.95;16.52;;;;;;;-5.74;100.00;98370.16;4892580;29;20047;-84
2021/12/22 04:25:40;;;;;;;42.13;16.90;;;;;;;-5.91;100.00;98340.44;4912983;29;20044;-84
2021/12/22 04:28:09;;;;;;;44.83;17.13;;;;;;;-5.84;100.00;98381.28;4897406;29;20048;-83
2021/12/22 04:30:40;;;;;;;40.58;17.95;;;;;;;-5.82;100.00;98377.88;4893146;29;20044;-84
2021/12/22 04:33:06;;;;;;;40.67;16.87;;;;;;;-5.89;100.00;98380.38;4895445;29;20040;-84
2021/12/22 04:35:33;;;;;;;40.45;17.95;;;;;;;-5.85;100.00;98387.41;4901792;29;20047;-84
2021/12/22 04:37:58;;;;;;;37.58;18.15;;;;;;;-5.95;100.00;98385.50;4908713;29;20047;-84
2021/12/22 04:40:24;;;;;;;35.42;16.65;;;;;;;-5.89;100.00;98383.00;4904908;29;20559;-84
2021/12/22 04:42:50;;;;;;;45.95;17.75;;;;;;;-5.82;100.00;98390.91;4900655;29;20146;-84
2021/12/22 04:45:16;;;;;;;43.50;19.23;;;;;;;-5.83;100.00;98398.69;4908645;29;20051;-85
2021/12/22 04:47:42;;;;;;;41.08;19.20;;;;;;;-5.91;100.00;98377.78;4919588;29;20498;-84
2021/12/22 04:50:14;;;;;;;45.95;17.17;;;;;;;-5.84;100.00;98392.59;4917658;29;20122;-84
2021/12/22 04:52:50;;;;;;;47.40;21.05;;;;;;;-5.74;100.00;98397.09;4900219;29;20082;-83
2021/12/22 04:55:16;;;;;;;57.55;22.38;;;;;;;-5.77;100.00;98399.66;4894447;29;20119;-84
2021/12/22 04:57:42;;;;;;;54.40;21.48;;;;;;;-5.89;100.00;98388.19;4890017;29;20040;-84
2021/12/22 05:00:10;;;;;;;59.08;22.23;;;;;;;-5.83;100.00;98406.50;4887101;29;20036;-85
2021/12/22 05:02:35;;;;;;;38.35;18.15;;;;;;;-5.77;100.00;98401.38;4889973;29;20063;-84
2021/12/22 05:05:01;;;;;;;52.50;20.85;;;;;;;-5.90;100.00;98407.28;4893148;29;20096;-84
2021/12/22 05:07:27;;;;;;;56.92;23.30;;;;;;;-5.94;100.00;98402.88;4902684;29;20035;-84
2021/12/22 05:09:52;;;;;;;61.65;24.35;;;;;;;-5.82;100.00;98400.44;4903979;29;20031;-86
2021/12/22 05:12:18;;;;;;;56.53;21.45;;;;;;;-5.79;100.00;98403.97;4900595;29;20416;-84
2021/12/22 05:14:47;;;;;;;42.05;17.08;;;;;;;-5.75;100.00;98417.94;4891828;29;20039;-83
2021/12/22 05:17:20;;;;;;;44.78;19.83;;;;;;;-5.86;100.00;98411.69;4905883;29;20051;-83
2021/12/22 05:19:46;;;;;;;34.20;15.20;;;;;;;-5.82;100.00;98426.50;4904195;29;20031;-84
2021/12/22 05:22:11;;;;;;;30.48;14.68;;;;;;;-6.00;100.00;98400.19;4895029;29;20042;-84
2021/12/22 05:24:37;;;;;;;33.65;15.52;;;;;;;-5.88;100.00;98431.63;4902647;29;20130;-86
2021/12/22 05:27:03;;;;;;;35.05;15.95;;;;;;;-6.07;100.00;98420.03;4893016;29;20413;-82
2021/12/22 05:29:29;;;;;;;45.58;19.88;;;;;;;-5.98;100.00;98432.31;4905603;29;20040;-88
2021/12/22 05:31:56;;;;;;;77.90;28.48;;;;;;;-6.09;100.00;98403.53;4898118;29;20043;-90
2021/12/22 08:02:55;;;;;;;111.00;47.00;;;;;;;3.50;55.41;98416.91;4924149;28;20058;-85
2021/12/22 08:05:21;;;;;;;100.40;43.75;;;;;;;4.39;50.26;98382.28;4930814;28;20106;-83
2021/12/22 08:07:47;;;;;;;87.15;42.35;;;;;;;3.24;50.92;98390.09;4937920;28;20034;-82
2021/12/22 08:10:13;;;;;;;90.30;35.58;;;;;;;3.04;52.08;98405.47;4926110;29;20400;-83
2021/12/22 08:12:38;;;;;;;72.38;31.02;;;;;;;2.69;51.77;98391.09;4933402;28;20133;-84
2021/12/22 08:15:05;;;;;;;51.25;25.08;;;;;;;1.87;52.05;98419.66;4933893;28;20074;-81
2021/12/22 08:17:34;;;;;;;48.53;22.73;;;;;;;0.90;54.67;98426.94;4926348;28;20043;-82
2021/12/22 08:20:00;;;;;;;60.35;27.80;;;;;;;0.94;55.98;98427.78;4940091;28;20560;-80
2021/12/22 08:29:33;;;;;;;38.55;18.20;;;;;;;-0.13;57.08;98353.28;4945588;29;20415;-88
2021/12/22 08:32:43;;;;;;;37.20;18.88;;;;;;;-0.33;58.29;98370.91;4906271;29;20043;-90
2021/12/22 08:35:15;;;;;;;51.90;22.02;;;;;;;-0.42;59.37;98360.47;4876009;29;20470;-88
2021/12/22 08:40:35;;;;;;;37.20;16.23;;;;;;;-0.25;60.84;98412.06;4903102;29;20116;-88
2021/12/22 08:53:25;;;;;;;;;;;;;;;;;;;;;
2021/12/22 08:56:18;;;;;;;65.28;30.58;;;;;;;-0.81;64.47;98471.81;4898120;29;20108;-89
2021/12/22 09:03:20;;;;;;;62.47;25.58;;;;;;;-0.71;65.13;98466.53;4885210;29;20056;-89
2021/12/22 09:06:41;;;;;;;65.85;31.60;;;;;;;-0.41;65.87;98472.56;4885150;29;20043;-90
2021/12/22 09:09:40;;;;;;;;;;;;;;;;;;;;;
2021/12/22 09:12:26;;;;;;;81.45;35.03;;;;;;;0.54;62.02;98420.25;4883140;29;20567;-87
2021/12/22 09:15:45;;;;;;;53.85;28.05;;;;;;;0.92;60.43;98455.91;4874591;29;20040;-89
2021/12/22 09:18:19;;;;;;;80.63;30.05;;;;;;;0.62;59.45;98346.47;4896702;29;20552;-88
2021/12/22 09:20:47;;;;;;;59.53;28.85;;;;;;;0.47;58.17;98358.03;4915506;29;20415;-88
2021/12/22 09:23:42;;;;;;;56.90;28.23;;;;;;;0.90;58.37;98432.22;4923193;29;20503;-87
2021/12/22 09:26:19;;;;;;;42.28;20.52;;;;;;;0.70;58.25;98404.34;4939321;29;20089;-87
2021/12/22 09:28:55;;;;;;;34.85;15.85;;;;;;;0.39;58.16;98344.09;4924157;29;20043;-87
2021/12/22 09:31:57;;;;;;;24.52;13.57;;;;;;;0.47;57.82;98363.31;4939349;29;20516;-86
2021/12/22 09:34:36;;;;;;;29.45;14.85;;;;;;;0.76;59.36;98383.22;4938541;29;20132;-88
2021/12/22 09:37:21;;;;;;;;;;;;;;;;;;;;;
2021/12/22 09:39:47;;;;;;;20.77;9.77;;;;;;;0.90;52.88;98321.63;4941054;29;20110;-88
2021/12/22 09:42:16;;;;;;;27.73;13.07;;;;;;;0.59;54.11;98311.41;4924915;29;20062;-88
2021/12/22 09:52:42;;;;;;;23.75;10.40;;;;;;;1.11;52.25;98314.38;4784170;29;20054;-88
2021/12/22 09:55:41;;;;;;;19.65;10.88;;;;;;;1.16;51.32;98355.56;4782650;29;20058;-89
2021/12/22 10:05:58;;;;;;;;;;;;;;;;;;;;;
2021/12/22 10:15:01;;;;;;;;;;;;;;;;;;;;;
2021/12/22 10:24:28;;;;;;;;;;;;;;;;;;;;;
2021/12/22 10:27:05;;;;;;;48.85;22.70;;;;;;;2.26;50.41;98363.66;4835052;29;20121;-88
2021/12/22 10:29:33;;;;;;;51.58;23.92;;;;;;;2.39;51.18;98383.69;4864253;29;20039;-89
2021/12/22 10:32:07;;;;;;;51.65;21.05;;;;;;;2.39;51.82;98353.78;4938105;29;20058;-87
2021/12/22 10:34:33;;;;;;;50.10;21.60;;;;;;;2.43;51.51;98347.56;4922453;29;20138;-88
2021/12/22 10:37:34;;;;;;;42.10;20.48;;;;;;;2.73;51.47;98387.53;4907318;29;20071;-87
2021/12/22 10:40:21;;;;;;;49.88;20.13;;;;;;;2.40;52.09;98340.53;4923189;29;20115;-88
2021/12/22 10:42:46;;;;;;;52.17;20.33;;;;;;;2.39;52.64;98362.59;4907862;29;20495;-89
2021/12/22 10:45:26;;;;;;;41.08;20.90;;;;;;;2.16;53.01;98348.88;4923274;29;20075;-89
2021/12/22 10:50:40;;;;;;;41.97;19.45;;;;;;;2.00;52.96;98339.47;4938478;29;20047;-88
2021/12/22 10:53:08;;;;;;;42.38;20.10;;;;;;;1.43;54.48;98392.13;4921634;29;20586;-88
2021/12/22 10:55:40;;;;;;;39.47;20.13;;;;;;;1.81;54.13;98373.16;4922756;29;20039;-87
2021/12/22 10:58:34;;;;;;;34.70;16.30;;;;;;;1.87;53.41;98344.06;4938510;29;20131;-88
2021/12/22 11:01:12;;;;;;;37.30;16.73;;;;;;;1.98;53.63;98370.25;4939063;29;20047;-90
2021/12/22 11:03:46;;;;;;;36.13;17.88;;;;;;;1.76;53.56;98337.19;4923221;29;20539;-88
2021/12/22 11:06:28;;;;;;;38.53;18.08;;;;;;;2.41;52.73;98350.22;4922698;29;20051;-88
2021/12/22 11:09:14;;;;;;;37.88;18.85;;;;;;;2.46;51.28;98318.47;4918332;29;20483;-88
2021/12/22 11:11:44;;;;;;;36.38;18.58;;;;;;;2.93;50.11;98312.28;4913132;29;20046;-88
2021/12/22 11:14:14;;;;;;;36.65;20.42;;;;;;;3.48;48.98;98328.75;4937568;29;20039;-89
2021/12/22 11:16:56;;;;;;;49.22;24.38;;;;;;;4.01;47.98;98311.69;4906060;29;20043;-88
2021/12/22 11:19:27;;;;;;;42.35;21.52;;;;;;;4.13;46.65;98262.88;4938734;29;20047;-90
2021/12/22 11:22:37;;;;;;;39.30;21.17;;;;;;;3.96;47.11;98321.53;4921686;29;20035;-88
2021/12/22 11:24:53;;;;;;;43.83;19.60;;;;;;;3.73;48.29;98302.66;4924378;29;20036;-88
2021/12/22 11:27:21;;;;;;;53.00;20.95;;;;;;;3.75;48.48;98320.22;4920811;29;20059;-89
2021/12/22 11:29:51;;;;;;;50.10;23.65;;;;;;;3.46;48.11;98305.91;4905417;29;20214;-87
2021/12/22 11:32:20;;;;;;;51.33;22.83;;;;;;;2.52;50.81;98282.25;4905409;29;20031;-87
2021/12/22 11:34:52;;;;;;;45.15;21.25;;;;;;;2.64;49.72;98311.09;4905834;29;20050;-87
2021/12/22 11:37:19;;;;;;;44.55;18.80;;;;;;;2.57;50.20;98320.03;4906045;29;20099;-88
2021/12/22 11:39:45;;;;;;;41.08;18.27;;;;;;;3.10;49.61;98312.84;4921033;29;20044;-89
2021/12/22 11:42:13;;;;;;;33.70;17.10;;;;;;;2.87;49.81;98309.78;4921135;29;20035;-89
2021/12/22 11:44:39;;;;;;;57.22;20.50;;;;;;;2.96;49.26;98301.66;4922385;29;20547;-89
2021/12/22 11:47:09;;;;;;;36.33;19.80;;;;;;;2.87;49.53;98300.06;4922141;29;20135;-89
2021/12/22 11:49:37;;;;;;;40.42;20.55;;;;;;;3.10;49.42;98318.13;4921308;29;20046;-88
2021/12/22 11:52:26;;;;;;;44.35;20.83;;;;;;;2.74;49.87;98322.34;4921617;29;20511;-89
2021/12/22 11:55:26;;;;;;;44.65;21.05;;;;;;;2.51;51.03;98311.34;4922812;29;20067;-89
2021/12/22 11:58:13;;;;;;;58.58;22.88;;;;;;;2.60;50.44;98290.91;4908747;29;20059;-89
2021/12/22 12:00:44;;;;;;;46.40;21.88;;;;;;;2.29;50.31;98275.66;4936587;29;20551;-88
2021/12/22 12:03:30;;;;;;;47.33;23.80;;;;;;;2.18;51.38;98323.34;4887277;29;20044;-90
2021/12/22 12:06:12;;;;;;;46.22;22.88;;;;;;;2.28;51.19;98306.44;4902881;29;20127;-89
2021/12/22 12:08:43;;;;;;;;;;;;;;;2.54;51.00;98313.91;4918640;29;20512;-90
2021/12/22 12:11:10;;;;;;;63.60;26.85;;;;;;;2.90;50.73;98309.72;4888583;29;19915;-88
2021/12/22 12:13:44;;;;;;;54.90;25.35;;;;;;;2.93;49.39;98296.44;4887550;29;20122;-89
2021/12/22 12:22:37;;;;;;;63.38;27.23;;;;;;;3.45;48.40;98260.09;4901511;29;20547;-89
2021/12/22 12:25:10;;;;;;;62.58;28.88;;;;;;;3.67;48.24;98276.34;4885616;29;20048;-90
2021/12/22 12:27:47;;;;;;;59.85;29.20;;;;;;;3.78;48.03;98288.41;4887542;29;20443;-88
2021/12/22 12:30:49;;;;;;;53.78;26.70;;;;;;;3.58;48.42;98279.19;4917444;29;20423;-89
2021/12/22 12:33:45;;;;;;;53.72;27.42;;;;;;;3.39;48.70;98281.38;4918379;29;20529;-89
2021/12/22 12:36:16;;;;;;;63.38;30.60;;;;;;;3.25;48.43;98242.03;4900020;29;20046;-90
2021/12/22 12:38:47;;;;;;;71.57;33.28;;;;;;;3.43;48.34;98237.22;4891628;29;20052;-91
2021/12/22 12:41:13;;;;;;;77.15;37.17;;;;;;;3.87;47.90;98281.19;4892366;29;20187;-84
2021/12/22 12:46:19;;;;;;;82.53;37.83;;;;;;;3.75;48.38;98285.00;4913163;29;20032;-87
2021/12/22 12:49:04;;;;;;;77.95;38.70;;;;;;;3.69;48.65;98288.63;4897316;29;20045;-86
2021/12/22 12:51:42;;;;;;;77.60;38.00;;;;;;;3.84;48.57;98282.97;4915657;29;20044;-82
2021/12/22 12:54:25;;;;;;;84.43;38.75;;;;;;;3.78;48.39;98259.31;4913315;29;20055;-86
2021/12/22 12:56:58;;;;;;;66.93;29.95;;;;;;;4.33;47.96;98287.09;4914342;29;20464;-85
2021/12/22 12:59:37;;;;;;;51.00;26.00;;;;;;;4.39;47.85;98279.00;4897820;29;20139;-82
2021/12/22 13:02:04;;;;;;;52.38;22.23;;;;;;;4.45;47.26;98278.81;4919175;29;20076;-83
2021/12/22 13:04:31;;;;;;;42.88;19.60;;;;;;;3.81;48.31;98275.09;4891878;29;20048;-81
2021/12/22 13:07:02;;;;;;;40.92;20.15;;;;;;;4.03;48.33;98279.91;4892787;29;20131;-81
2021/12/22 13:09:29;;;;;;;38.17;18.88;;;;;;;3.87;48.35;98281.19;4894912;29;20044;-81
2021/12/22 13:17:21;;;;;;;27.77;14.05;;;;;;;3.35;48.70;98276.19;4900497;29;20495;-80
2021/12/22 13:19:49;;;;;;;32.97;16.85;;;;;;;3.24;48.98;98282.59;4906002;29;20048;-82
2021/12/22 13:22:21;;;;;;;26.77;13.65;;;;;;;2.54;50.52;98290.16;4887049;29;20055;-84
2021/12/22 13:24:48;;;;;;;20.77;11.98;;;;;;;2.18;51.19;98299.59;4893495;29;20562;-82
2021/12/22 13:27:34;;;;;;;27.08;13.85;;;;;;;2.13;51.45;98301.44;4903609;29;20165;-80
2021/12/22 13:30:34;;;;;;;46.38;19.30;;;;;;;2.10;52.34;98307.63;4901680;29;20428;-81
2021/12/22 13:33:16;;;;;;;44.78;16.05;;;;;;;1.87;53.11;98307.13;4897501;29;20504;-81
2021/12/22 13:35:54;;;;;;;32.40;13.82;;;;;;;2.08;53.42;98304.16;4914857;29;20112;-80
2021/12/22 13:38:26;;;;;;;36.55;15.40;;;;;;;2.93;51.81;98307.00;4903065;29;20063;-81
2021/12/22 13:41:10;;;;;;;28.98;14.20;;;;;;;4.32;47.73;98294.16;4923027;29;20036;-82
2021/12/22 13:43:39;;;;;;;32.55;14.02;;;;;;;6.04;44.24;98282.13;4895011;29;20037;-85
2021/12/22 13:46:11;;;;;;;29.50;14.52;;;;;;;7.47;41.90;98256.69;4903293;29;20119;-81
2021/12/22 13:49:10;;;;;;;24.65;13.63;;;;;;;7.63;40.11;98257.81;4895719;29;20083;-88
2021/12/22 13:51:43;;;;;;;24.17;12.70;;;;;;;8.42;39.08;98258.16;4911351;29;20102;-86
2021/12/22 13:54:14;;;;;;;33.95;17.67;;;;;;;8.59;37.97;98247.66;4931386;29;20043;-85
2021/12/22 13:56:42;;;;;;;23.77;10.95;;;;;;;8.15;38.26;98240.63;4901718;29;20165;-86
2021/12/22 13:59:09;;;;;;;21.58;12.02;;;;;;;8.63;37.83;98251.94;4930027;29;20425;-85
2021/12/22 14:01:39;;;;;;;22.02;11.35;;;;;;;8.66;36.58;98253.59;4905073;29;20145;-87
2021/12/22 14:04:19;;;;;;;23.35;11.57;;;;;;;8.51;37.28;98240.91;4895873;29;20528;-86
2021/12/22 14:06:46;;;;;;;25.38;14.07;;;;;;;8.35;37.33;98253.16;4889228;29;20098;-85
2021/12/22 14:09:12;;;;;;;38.75;18.33;;;;;;;8.14;37.52;98258.41;4895343;29;20072;-84
2021/12/22 14:11:43;;;;;;;29.75;16.42;;;;;;;7.53;38.02;98252.00;4910166;29;20086;-86
2021/12/22 14:14:26;;;;;;;26.65;14.30;;;;;;;6.55;38.77;98239.69;4894749;29;20036;-84
2021/12/22 14:17:04;;;;;;;20.65;10.93;;;;;;;5.36;41.31;98263.00;4894842;29;20541;-84
2021/12/22 14:19:35;;;;;;;27.10;14.82;;;;;;;4.54;43.66;98286.53;4910734;29;20076;-85
2021/12/22 14:22:05;;;;;;;28.88;17.48;;;;;;;3.78;45.10;98274.34;4894687;29;20048;-84
2021/12/22 14:24:36;;;;;;;51.95;25.02;;;;;;;3.15;47.32;98281.91;4894118;29;20250;-84
2021/12/22 14:27:03;;;;;;;86.05;40.47;;;;;;;2.63;49.95;98295.25;4910507;29;20048;-84
2021/12/22 14:29:30;;;;;;;77.20;37.55;;;;;;;2.28;51.07;98311.72;4894159;29;20107;-85
2021/12/22 14:32:01;;;;;;;87.70;40.80;;;;;;;1.97;53.40;98331.59;4910509;29;20044;-85
2021/12/22 14:34:27;;;;;;;77.43;38.67;;;;;;;1.66;53.72;98335.59;4910937;29;20497;-84
2021/12/22 14:36:53;;;;;;;65.90;31.50;;;;;;;1.38;54.24;98338.59;4895459;29;20035;-86
2021/12/22 14:39:19;;;;;;;70.25;34.92;;;;;;;1.04;55.41;98316.19;4900567;29;20090;-84
2021/12/22 14:41:45;;;;;;;73.25;37.55;;;;;;;1.14;56.60;98365.22;4917043;29;20047;-83
2021/12/22 14:44:20;;;;;;;106.20;45.10;;;;;;;0.97;57.36;98365.44;4918223;29;20109;-84
2021/12/22 14:46:46;;;;;;;95.10;44.38;;;;;;;0.84;58.00;98373.47;4916988;29;20039;-85
2021/12/22 14:49:18;;;;;;;109.82;49.50;;;;;;;0.65;59.33;98379.81;4914527;29;20051;-85
2021/12/22 14:51:45;;;;;;;115.78;52.63;;;;;;;0.53;60.85;98378.16;4933891;29;20168;-78
2021/12/22 14:54:20;;;;;;;124.63;54.70;;;;;;;0.40;60.95;98372.13;4935525;29;20031;-88
2021/12/22 14:56:48;;;;;;;121.90;51.72;;;;;;;0.40;62.36;98393.19;4953480;29;20134;-87
2021/12/22 14:59:15;;;;;;;128.18;53.92;;;;;;;0.14;62.97;98386.38;4939163;29;20039;-88
2021/12/22 15:01:42;;;;;;;118.90;51.88;;;;;;;-0.10;64.71;98379.56;4970084;28;20077;-89
2021/12/22 15:04:18;;;;;;;113.50;48.42;;;;;;;-0.14;65.55;98380.44;4961252;28;20073;-91
2021/12/22 15:06:48;;;;;;;114.32;44.97;;;;;;;-0.26;65.79;98383.16;4978934;28;20031;-88
2021/12/22 15:09:15;;;;;;;107.15;45.63;;;;;;;-0.27;66.10;98399.78;4946663;28;20525;-88
2021/12/22 15:11:44;;;;;;;105.85;46.00;;;;;;;-0.26;66.12;98393.66;4961797;28;20043;-88
2021/12/22 15:14:10;;;;;;;153.40;58.75;;;;;;;-0.35;67.19;98399.84;4947087;28;20039;-88
2021/12/22 15:20:11;;;;;;;146.00;55.75;;;;;;;-0.60;70.50;98398.22;4993622;28;20045;-89
2021/12/22 15:22:43;;;;;;;169.85;63.85;;;;;;;-0.59;71.79;98416.63;4958221;28;20043;-88
2021/12/22 15:28:53;;;;;;;196.10;86.47;;;;;;;-0.72;73.21;98409.66;4994202;28;20179;-88
2021/12/22 15:31:19;;;;;;;182.43;80.75;;;;;;;-0.83;73.98;98398.28;4974081;28;20043;-90
2021/12/22 15:33:45;;;;;;;170.48;69.20;;;;;;;-0.81;72.55;98407.06;4956262;28;20129;-88
2021/12/22 15:42:56;;;;;;;115.43;50.25;;;;;;;-1.67;73.79;98292.72;4967397;29;20170;-87
2021/12/22 15:45:24;;;;;;;111.30;50.17;;;;;;;-1.57;73.29;98321.53;4938661;29;20043;-91
2021/12/22 15:47:53;;;;;;;111.90;50.97;;;;;;;-1.14;73.63;98400.13;4935536;29;20039;-88
2021/12/22 15:50:19;;;;;;;148.18;61.95;;;;;;;-1.15;73.76;98402.78;4938295;28;20045;-89